createdAt,value
2017-12-13T00:00:27.756Z,5.00
2017-12-13T00:02:56.040Z,4.90
2017-12-13T00:05:23.533Z,4.90
2017-12-13T00:07:51.027Z,4.90
2017-12-13T00:10:18.515Z,4.90
2017-12-13T00:12:46.163Z,4.90
2017-12-13T00:15:14.414Z,5.00
2017-12-13T00:17:41.903Z,5.00
2017-12-13T00:20:10.164Z,5.00
2017-12-13T00:22:38.434Z,5.10
2017-12-13T00:25:05.923Z,5.10
2017-12-13T00:27:33.423Z,5.10
2017-12-13T00:30:00.915Z,5.10
2017-12-13T00:32:29.191Z,5.00
2017-12-13T00:34:57.506Z,5.00
2017-12-13T00:37:24.978Z,5.00
2017-12-13T00:39:52.474Z,5.00
2017-12-13T00:42:19.967Z,5.00
2017-12-13T00:44:47.464Z,5.00
2017-12-13T00:47:15.171Z,5.00
2017-12-13T00:49:43.432Z,4.90
2017-12-13T00:52:11.104Z,4.90
2017-12-13T00:54:39.360Z,4.90
2017-12-13T00:57:06.847Z,4.80
2017-12-13T00:59:35.122Z,5.00
2017-12-13T01:02:03.405Z,5.00
2017-12-13T01:04:31.655Z,5.00
2017-12-13T01:06:59.142Z,5.00
2017-12-13T01:09:26.649Z,5.00
2017-12-13T01:11:54.139Z,5.00
2017-12-13T01:14:22.415Z,5.00
2017-12-13T01:16:50.675Z,5.00
2017-12-13T01:19:18.163Z,5.00
2017-12-13T01:21:46.436Z,5.00
2017-12-13T01:24:14.696Z,5.00
2017-12-13T01:26:42.191Z,4.90
2017-12-13T01:29:09.686Z,4.90
2017-12-13T01:31:37.180Z,4.90
2017-12-13T01:34:05.450Z,4.90
2017-12-13T01:36:33.707Z,4.90
2017-12-13T01:39:01.211Z,4.90
2017-12-13T01:41:28.699Z,4.90
2017-12-13T01:43:56.212Z,4.90
2017-12-13T01:46:24.488Z,4.90
2017-12-13T01:48:52.863Z,4.80
2017-12-13T01:51:21.127Z,4.90
2017-12-13T01:53:48.651Z,4.90
2017-12-13T01:56:16.143Z,5.00
2017-12-13T01:58:43.651Z,4.90
2017-12-13T02:01:11.164Z,4.90
2017-12-13T02:03:38.836Z,4.90
2017-12-13T02:06:07.097Z,4.80
2017-12-13T02:08:34.587Z,4.80
2017-12-13T02:11:02.107Z,4.80
2017-12-13T02:13:29.612Z,4.80
2017-12-13T02:15:57.115Z,4.70
2017-12-13T02:18:24.623Z,4.70
2017-12-13T02:20:52.119Z,4.70
2017-12-13T02:23:19.640Z,4.60
2017-12-13T02:25:47.131Z,4.70
2017-12-13T02:28:14.623Z,4.60
2017-12-13T02:30:42.879Z,4.60
2017-12-13T02:33:10.367Z,4.60
2017-12-13T02:35:38.641Z,4.50
2017-12-13T02:38:06.907Z,4.60
2017-12-13T02:40:46.419Z,4.50
2017-12-13T02:43:13.924Z,4.50
2017-12-13T02:45:42.199Z,4.50
2017-12-13T02:48:10.459Z,4.40
2017-12-13T02:50:37.958Z,4.40
2017-12-13T02:53:05.456Z,4.50
2017-12-13T02:55:32.973Z,4.40
2017-12-13T02:58:00.471Z,4.40
2017-12-13T03:00:28.054Z,4.40
2017-12-13T03:02:55.568Z,4.40
2017-12-13T03:05:23.062Z,4.50
2017-12-13T03:07:50.580Z,4.40
2017-12-13T03:10:18.084Z,4.40
2017-12-13T03:12:45.599Z,4.30
2017-12-13T03:15:13.115Z,4.40
2017-12-13T03:17:41.387Z,4.40
2017-12-13T03:20:09.652Z,4.50
2017-12-13T03:22:37.335Z,4.40
2017-12-13T03:25:05.602Z,4.40
2017-12-13T03:27:33.860Z,4.40
2017-12-13T03:30:01.357Z,4.40
2017-12-13T03:32:28.879Z,4.40
2017-12-13T03:34:56.383Z,4.40
2017-12-13T03:37:24.020Z,4.40
2017-12-13T03:39:52.290Z,4.40
2017-12-13T03:42:20.775Z,4.40
2017-12-13T03:44:49.068Z,4.50
2017-12-13T03:47:16.567Z,4.50
2017-12-13T03:49:44.063Z,4.50
2017-12-13T03:52:12.448Z,4.50
2017-12-13T03:54:40.715Z,4.60
2017-12-13T03:57:08.985Z,4.50
2017-12-13T03:59:36.474Z,4.50
2017-12-13T04:02:03.975Z,4.40
2017-12-13T04:04:31.691Z,4.40
2017-12-13T04:06:59.951Z,4.40
2017-12-13T04:09:28.439Z,4.40
2017-12-13T04:11:56.702Z,4.30
2017-12-13T04:14:24.986Z,4.20
2017-12-13T04:16:53.260Z,4.20
2017-12-13T04:19:21.543Z,4.30
2017-12-13T04:21:49.809Z,4.30
2017-12-13T04:24:17.320Z,4.30
2017-12-13T04:26:44.815Z,4.20
2017-12-13T04:29:12.313Z,4.20
2017-12-13T04:31:39.840Z,4.10
2017-12-13T04:34:07.345Z,4.10
2017-12-13T04:36:34.835Z,4.10
2017-12-13T04:39:02.331Z,4.10
2017-12-13T04:41:30.601Z,4.20
2017-12-13T04:43:58.875Z,4.10
2017-12-13T04:46:27.135Z,4.10
2017-12-13T04:48:54.639Z,4.10
2017-12-13T04:51:22.136Z,4.10
2017-12-13T04:53:49.657Z,4.10
2017-12-13T04:56:17.160Z,4.10
2017-12-13T04:58:44.658Z,4.00
2017-12-13T05:01:12.935Z,4.00
2017-12-13T05:03:41.194Z,4.00
2017-12-13T05:06:09.678Z,4.00
2017-12-13T05:08:37.988Z,4.00
2017-12-13T05:11:05.791Z,4.00
2017-12-13T05:13:33.291Z,4.00
2017-12-13T05:16:01.557Z,4.00
2017-12-13T05:18:29.824Z,3.90
2017-12-13T05:20:57.321Z,3.90
2017-12-13T05:23:24.850Z,4.00
2017-12-13T05:25:53.130Z,4.00
2017-12-13T05:28:21.395Z,4.10
2017-12-13T05:30:49.064Z,4.10
2017-12-13T05:33:17.351Z,4.10
2017-12-13T05:35:45.615Z,4.10
2017-12-13T05:38:13.885Z,4.00
2017-12-13T05:40:41.387Z,4.00
2017-12-13T05:43:08.897Z,4.00
2017-12-13T05:45:36.399Z,3.90
2017-12-13T05:48:03.900Z,3.90
2017-12-13T05:50:31.407Z,3.90
2017-12-13T05:52:58.931Z,3.90
2017-12-13T05:55:26.544Z,3.90
2017-12-13T05:57:54.042Z,3.90
2017-12-13T06:00:21.539Z,3.90
2017-12-13T06:02:49.059Z,3.80
2017-12-13T06:05:16.568Z,3.80
2017-12-13T06:07:44.064Z,3.70
2017-12-13T06:10:11.560Z,3.70
2017-12-13T06:12:39.819Z,3.60
2017-12-13T06:15:07.359Z,3.60
2017-12-13T06:17:34.857Z,3.60
2017-12-13T06:20:03.115Z,3.70
2017-12-13T06:22:30.611Z,3.60
2017-12-13T06:24:58.107Z,3.60
2017-12-13T06:27:25.616Z,3.60
2017-12-13T06:29:53.119Z,3.60
2017-12-13T06:32:20.615Z,3.60
2017-12-13T06:34:48.899Z,3.60
2017-12-13T06:37:17.164Z,3.70
2017-12-13T06:39:45.434Z,3.70
2017-12-13T06:42:13.816Z,3.70
2017-12-13T06:44:42.099Z,3.80
2017-12-13T06:47:10.375Z,3.80
2017-12-13T06:49:38.635Z,3.80
2017-12-13T06:52:06.139Z,3.80
2017-12-13T06:54:33.775Z,3.80
2017-12-13T06:57:02.059Z,3.80
2017-12-13T06:59:30.319Z,3.80
2017-12-13T07:01:58.580Z,3.90
2017-12-13T07:04:26.870Z,3.90
2017-12-13T07:06:54.364Z,3.90
2017-12-13T07:09:21.882Z,3.90
2017-12-13T07:11:49.381Z,3.90
2017-12-13T07:14:16.872Z,3.90
2017-12-13T07:16:44.368Z,4.00
2017-12-13T07:19:12.678Z,3.90
2017-12-13T07:21:40.236Z,3.80
2017-12-13T07:24:07.731Z,3.90
2017-12-13T07:26:35.241Z,3.90
2017-12-13T07:29:02.778Z,4.00
2017-12-13T07:31:30.292Z,3.90
2017-12-13T07:33:57.796Z,3.90
2017-12-13T07:36:26.056Z,4.00
2017-12-13T07:38:53.548Z,4.00
2017-12-13T07:41:21.091Z,4.00
2017-12-13T07:43:49.371Z,4.10
2017-12-13T07:46:17.633Z,4.10
2017-12-13T07:48:45.895Z,4.20
2017-12-13T07:51:13.409Z,4.10
2017-12-13T07:53:41.254Z,4.20
2017-12-13T07:56:09.515Z,4.20
2017-12-13T07:58:37.799Z,4.20
2017-12-13T08:01:06.062Z,4.20
2017-12-13T08:03:33.576Z,4.20
2017-12-13T08:06:01.071Z,4.20
2017-12-13T08:08:28.583Z,4.20
2017-12-13T08:10:56.104Z,4.10
2017-12-13T08:13:24.378Z,4.30
2017-12-13T08:15:52.638Z,4.30
2017-12-13T08:18:20.147Z,4.30
2017-12-13T08:20:47.659Z,4.30
2017-12-13T08:23:15.159Z,4.40
2017-12-13T08:25:42.663Z,4.40
2017-12-13T08:28:10.155Z,4.40
2017-12-13T08:30:38.415Z,4.50
2017-12-13T08:33:05.914Z,4.50
2017-12-13T08:35:33.411Z,4.50
2017-12-13T08:38:00.907Z,4.50
2017-12-13T08:40:29.167Z,4.40
2017-12-13T08:42:57.431Z,4.40
2017-12-13T08:45:24.928Z,4.40
2017-12-13T08:47:52.435Z,4.50
2017-12-13T08:50:19.945Z,4.50
2017-12-13T08:52:47.467Z,4.70
2017-12-13T08:55:14.963Z,4.70
2017-12-13T08:57:42.470Z,4.80
2017-12-13T09:00:09.968Z,4.90
2017-12-13T09:02:38.243Z,5.00
2017-12-13T09:05:06.511Z,5.00
2017-12-13T09:07:34.771Z,5.00
2017-12-13T09:10:03.036Z,5.00
2017-12-13T09:12:30.667Z,5.00
2017-12-13T09:14:58.191Z,5.10
2017-12-13T09:17:25.728Z,5.20
2017-12-13T09:19:53.223Z,5.20
2017-12-13T09:22:20.725Z,5.20
2017-12-13T09:24:48.232Z,5.20
2017-12-13T09:27:15.747Z,5.10
2017-12-13T09:29:43.443Z,5.10
2017-12-13T09:32:11.711Z,5.20
2017-12-13T09:34:40.004Z,5.10
2017-12-13T09:37:08.267Z,5.10
2017-12-13T09:39:36.527Z,5.10
2017-12-13T09:42:04.024Z,5.10
2017-12-13T09:44:31.527Z,5.10
2017-12-13T09:46:59.019Z,5.10
2017-12-13T09:49:27.282Z,5.20
2017-12-13T09:51:54.780Z,5.10
2017-12-13T09:54:22.283Z,5.20
2017-12-13T09:56:49.784Z,5.20
2017-12-13T09:59:18.063Z,5.30
2017-12-13T10:01:45.590Z,5.30
2017-12-13T10:04:13.873Z,5.40
2017-12-13T10:06:41.371Z,5.40
2017-12-13T10:09:08.872Z,5.40
2017-12-13T10:11:37.155Z,5.40
2017-12-13T10:14:04.667Z,5.40
2017-12-13T10:16:32.198Z,5.30
2017-12-13T10:19:00.459Z,5.40
2017-12-13T10:21:27.985Z,5.40
2017-12-13T10:23:55.493Z,5.50
2017-12-13T10:26:23.756Z,5.70
2017-12-13T10:28:52.022Z,5.70
2017-12-13T10:31:19.551Z,5.70
2017-12-13T10:33:47.068Z,5.80
2017-12-13T10:36:15.335Z,5.90
2017-12-13T10:38:43.599Z,6.00
2017-12-13T10:41:11.866Z,6.10
2017-12-13T10:43:39.357Z,6.00
2017-12-13T10:46:06.873Z,6.10
2017-12-13T10:48:35.160Z,6.20
2017-12-13T10:51:02.665Z,6.10
2017-12-13T10:53:30.162Z,6.30
2017-12-13T10:55:57.856Z,6.30
2017-12-13T10:58:26.123Z,6.30
2017-12-13T11:00:53.634Z,6.30
2017-12-13T11:03:21.140Z,6.30
2017-12-13T11:05:48.651Z,6.30
2017-12-13T11:08:16.148Z,6.40
2017-12-13T11:10:43.647Z,6.40
2017-12-13T11:13:11.161Z,6.40
2017-12-13T11:15:38.671Z,6.50
2017-12-13T11:18:06.168Z,6.60
2017-12-13T11:20:33.666Z,6.80
2017-12-13T11:23:01.938Z,7.00
2017-12-13T11:25:30.198Z,7.20
2017-12-13T11:27:58.475Z,7.20
2017-12-13T11:30:25.997Z,7.20
2017-12-13T11:32:53.495Z,7.20
2017-12-13T11:35:21.767Z,7.20
2017-12-13T11:37:49.291Z,7.10
2017-12-13T11:40:16.791Z,7.20
2017-12-13T11:42:45.079Z,7.20
2017-12-13T11:45:13.344Z,7.10
2017-12-13T11:47:41.618Z,7.20
2017-12-13T11:50:09.880Z,7.20
2017-12-13T11:52:37.383Z,7.20
2017-12-13T11:55:04.876Z,7.20
2017-12-13T11:57:32.376Z,7.20
2017-12-13T12:00:00.647Z,7.30
2017-12-13T12:02:29.343Z,7.40
2017-12-13T12:04:57.602Z,7.60
2017-12-13T12:07:25.096Z,7.70
2017-12-13T12:12:26.499Z,7.70
2017-12-13T12:14:53.996Z,7.60
2017-12-13T12:17:22.275Z,7.50
2017-12-13T12:19:50.556Z,7.60
2017-12-13T12:22:18.809Z,7.60
2017-12-13T12:24:46.316Z,7.60
2017-12-13T12:27:13.802Z,7.70
2017-12-13T12:29:41.312Z,7.70
2017-12-13T12:32:09.578Z,7.60
2017-12-13T12:34:37.840Z,7.50
2017-12-13T12:37:05.343Z,7.50
2017-12-13T12:39:32.851Z,7.50
2017-12-13T12:42:00.342Z,7.60
2017-12-13T12:44:28.612Z,8.90
2017-12-13T12:46:56.879Z,11.00
2017-12-13T12:49:25.147Z,13.60
2017-12-13T12:51:52.640Z,13.60
2017-12-13T12:54:20.160Z,16.50
2017-12-13T12:56:47.654Z,19.10
2017-12-13T12:59:15.191Z,20.70
2017-12-13T13:01:43.458Z,22.00
2017-12-13T13:04:11.735Z,21.10
2017-12-13T13:06:40.023Z,20.90
2017-12-13T13:09:08.289Z,20.60
2017-12-13T13:11:36.559Z,21.00
2017-12-13T13:14:04.082Z,21.00
2017-12-13T13:16:31.582Z,22.30
2017-12-13T13:18:59.091Z,23.50
2017-12-13T13:21:26.607Z,25.00
2017-12-13T13:23:54.874Z,27.20
2017-12-13T13:26:22.391Z,27.10
2017-12-13T13:28:49.886Z,27.70
2017-12-13T13:31:17.395Z,28.10
2017-12-13T13:33:44.892Z,28.40
2017-12-13T13:36:13.172Z,28.60
2017-12-13T13:38:40.667Z,28.60
2017-12-13T13:41:08.167Z,28.20
2017-12-13T13:43:35.674Z,26.90
2017-12-13T13:46:03.942Z,21.80
2017-12-13T13:48:32.203Z,19.40
2017-12-13T13:51:01.215Z,17.40
2017-12-13T13:53:29.492Z,15.80
2017-12-13T13:55:57.768Z,14.50
2017-12-13T13:58:26.051Z,13.40
2017-12-13T14:00:54.311Z,12.50
2017-12-13T14:03:22.583Z,11.60
2017-12-13T14:05:50.967Z,10.90
2017-12-13T14:08:19.230Z,10.30
2017-12-13T14:10:46.731Z,10.30
2017-12-13T14:13:14.250Z,9.80
2017-12-13T14:15:41.748Z,9.30
2017-12-13T14:18:09.243Z,8.80
2017-12-13T14:20:36.731Z,8.50
2017-12-13T14:23:04.231Z,8.10
2017-12-13T14:25:31.729Z,7.80
2017-12-13T14:27:59.227Z,7.60
2017-12-13T14:30:26.880Z,7.40
2017-12-13T14:32:55.136Z,6.90
2017-12-13T14:35:22.641Z,6.90
2017-12-13T14:37:50.147Z,6.80
2017-12-13T14:40:17.686Z,6.60
2017-12-13T14:42:45.165Z,6.60
2017-12-13T14:45:12.663Z,6.50
2017-12-13T14:47:40.157Z,6.40
2017-12-13T14:50:07.663Z,6.30
2017-12-13T14:52:36.144Z,6.10
2017-12-13T14:55:04.395Z,6.00
2017-12-13T14:57:31.884Z,6.00
2017-12-13T15:00:00.139Z,5.80
2017-12-13T15:02:28.398Z,5.70
2017-12-13T15:04:55.916Z,5.70
2017-12-13T15:07:23.419Z,5.60
2017-12-13T15:09:50.930Z,5.50
2017-12-13T15:12:18.432Z,5.50
2017-12-13T15:14:45.919Z,5.40
2017-12-13T15:17:14.176Z,5.30
2017-12-13T15:19:41.690Z,5.30
2017-12-13T15:22:09.196Z,5.20
2017-12-13T15:24:36.695Z,5.20
2017-12-13T15:27:04.192Z,5.20
2017-12-13T15:29:31.680Z,5.10
2017-12-13T15:31:59.280Z,5.10
2017-12-13T15:34:26.779Z,5.00
2017-12-13T15:36:54.283Z,4.90
2017-12-13T15:39:21.791Z,4.90
2017-12-13T15:41:49.299Z,4.90
2017-12-13T15:44:16.795Z,4.80
2017-12-13T15:46:44.291Z,4.80
2017-12-13T15:49:12.564Z,4.70
2017-12-13T15:51:40.062Z,4.70
2017-12-13T15:54:07.547Z,4.70
2017-12-13T15:56:35.040Z,4.70
2017-12-13T15:59:03.300Z,4.60
2017-12-13T16:01:30.809Z,4.60
2017-12-13T16:03:58.318Z,4.60
2017-12-13T16:06:25.810Z,4.50
2017-12-13T16:08:54.093Z,4.50
2017-12-13T16:11:21.587Z,4.50
2017-12-13T16:13:49.100Z,4.40
2017-12-13T16:16:17.588Z,4.40
2017-12-13T16:18:45.083Z,4.40
2017-12-13T16:21:12.587Z,4.40
2017-12-13T16:23:40.842Z,4.40
2017-12-13T16:26:08.340Z,4.40
2017-12-13T16:28:35.839Z,4.40
2017-12-13T16:31:03.343Z,4.30
2017-12-13T16:33:31.619Z,4.30
2017-12-13T16:35:59.886Z,4.30
2017-12-13T16:38:28.159Z,4.30
2017-12-13T16:40:55.656Z,4.20
2017-12-13T16:43:23.167Z,4.30
2017-12-13T16:45:50.668Z,4.20
2017-12-13T16:48:18.174Z,4.10
2017-12-13T16:50:45.694Z,4.10
2017-12-13T16:53:13.192Z,4.10
2017-12-13T16:55:40.701Z,4.10
2017-12-13T16:58:08.203Z,4.00
2017-12-13T17:00:35.703Z,4.00
2017-12-13T17:03:03.989Z,3.90
2017-12-13T17:05:31.487Z,3.80
2017-12-13T17:07:59.003Z,3.80
2017-12-13T17:10:26.505Z,3.70
2017-12-13T17:12:54.024Z,3.70
2017-12-13T17:15:21.516Z,3.60
2017-12-13T17:17:49.011Z,3.60
2017-12-13T17:20:16.499Z,3.50
2017-12-13T17:22:44.143Z,3.50
2017-12-13T17:25:12.410Z,3.60
2017-12-13T17:27:40.679Z,3.60
2017-12-13T17:30:08.207Z,3.60
2017-12-13T17:32:35.731Z,3.60
2017-12-13T17:35:03.232Z,3.60
2017-12-13T17:37:30.735Z,3.50
2017-12-13T17:39:59.017Z,3.40
2017-12-13T17:42:26.520Z,3.40
2017-12-13T17:44:54.033Z,3.40
2017-12-13T17:47:21.534Z,3.40
2017-12-13T17:49:49.043Z,3.40
2017-12-13T17:52:17.314Z,3.40
2017-12-13T17:54:46.731Z,3.40
2017-12-13T17:57:14.227Z,3.40
2017-12-13T17:59:41.943Z,3.40
2017-12-13T18:02:10.220Z,3.40
2017-12-13T18:04:38.481Z,3.30
2017-12-13T18:07:06.749Z,3.20
2017-12-13T18:09:34.268Z,3.20
2017-12-13T18:12:01.776Z,3.20
2017-12-13T18:14:30.064Z,3.10
2017-12-13T18:16:58.327Z,3.10
2017-12-13T18:19:26.629Z,3.00
2017-12-13T18:21:54.875Z,3.00
2017-12-13T18:24:22.370Z,3.00
2017-12-13T18:26:49.863Z,2.90
2017-12-13T18:29:17.356Z,3.00
2017-12-13T18:31:45.627Z,2.90
2017-12-13T18:34:13.135Z,2.90
2017-12-13T18:36:40.623Z,2.90
2017-12-13T18:39:08.115Z,2.80
2017-12-13T18:41:36.391Z,2.90
2017-12-13T18:44:04.642Z,2.90
2017-12-13T18:46:32.135Z,2.80
2017-12-13T18:48:59.625Z,2.80
2017-12-13T18:51:27.140Z,2.80
2017-12-13T18:53:55.399Z,2.80
2017-12-13T18:56:22.901Z,2.80
2017-12-13T18:58:50.395Z,2.90
2017-12-13T19:01:17.884Z,2.90
2017-12-13T19:03:46.151Z,2.80
2017-12-13T19:06:13.639Z,2.80
2017-12-13T19:08:41.131Z,2.80
2017-12-13T19:11:08.640Z,2.80
2017-12-13T19:13:36.903Z,2.80
2017-12-13T19:16:05.190Z,2.90
2017-12-13T19:18:33.459Z,2.90
2017-12-13T19:21:01.722Z,2.80
2017-12-13T19:23:29.236Z,2.80
2017-12-13T19:25:56.742Z,2.80
2017-12-13T19:28:24.230Z,2.80
2017-12-13T19:30:52.497Z,2.90
2017-12-13T19:33:20.751Z,3.00
2017-12-13T19:35:48.246Z,2.90
2017-12-13T19:38:15.739Z,3.00
2017-12-13T19:40:43.228Z,3.00
2017-12-13T19:43:10.721Z,3.00
2017-12-13T19:45:38.222Z,3.00
2017-12-13T19:48:05.719Z,3.00
2017-12-13T19:50:33.980Z,3.00
2017-12-13T19:53:01.497Z,3.00
2017-12-13T19:55:28.992Z,3.00
2017-12-13T19:57:56.483Z,3.10
2017-12-13T20:00:24.036Z,3.10
2017-12-13T20:02:52.313Z,3.10
2017-12-13T20:05:20.576Z,3.10
2017-12-13T20:07:48.839Z,3.10
2017-12-13T20:10:16.331Z,3.10
2017-12-13T20:12:43.823Z,3.10
2017-12-13T20:15:17.147Z,3.10
2017-12-13T20:17:46.272Z,3.10
2017-12-13T20:20:14.612Z,3.10
2017-12-13T20:22:42.106Z,3.10
2017-12-13T20:25:10.398Z,3.20
2017-12-13T20:27:38.047Z,3.10
2017-12-13T20:30:06.345Z,3.20
2017-12-13T20:32:33.852Z,3.10
2017-12-13T20:35:01.344Z,3.20
2017-12-13T20:37:29.607Z,3.20
2017-12-13T20:39:57.876Z,3.20
2017-12-13T20:42:26.162Z,3.10
2017-12-13T20:44:54.430Z,3.10
2017-12-13T20:47:21.943Z,3.10
2017-12-13T20:49:49.460Z,3.00
2017-12-13T20:52:17.722Z,3.00
2017-12-13T20:54:45.999Z,3.00
2017-12-13T20:57:14.290Z,3.00
2017-12-13T20:59:42.562Z,2.90
2017-12-13T21:02:10.815Z,2.90
2017-12-13T21:04:39.835Z,2.80
2017-12-13T21:07:08.091Z,2.70
2017-12-13T21:09:35.602Z,2.70
2017-12-13T21:12:03.126Z,2.70
2017-12-13T21:14:31.448Z,2.60
2017-12-13T21:16:58.939Z,2.60
2017-12-13T21:19:27.199Z,2.60
2017-12-13T21:21:54.695Z,2.60
2017-12-13T21:24:22.971Z,2.50
2017-12-13T21:26:51.234Z,2.50
2017-12-13T21:29:18.731Z,2.50
2017-12-13T21:31:46.223Z,2.40
2017-12-13T21:34:13.735Z,2.30
2017-12-13T21:36:42.533Z,2.20
2017-12-13T21:39:10.031Z,2.20
2017-12-13T21:41:37.537Z,2.20
2017-12-13T21:44:05.804Z,2.10
2017-12-13T21:46:34.079Z,2.20
2017-12-13T21:49:02.338Z,2.20
2017-12-13T21:51:29.855Z,2.10
2017-12-13T21:53:57.359Z,2.10
2017-12-13T21:56:24.861Z,2.10
2017-12-13T21:58:52.371Z,2.00
2017-12-13T22:01:19.876Z,2.00
2017-12-13T22:03:47.393Z,2.10
2017-12-13T22:06:14.894Z,2.00
2017-12-13T22:08:42.407Z,2.10
2017-12-13T22:11:09.912Z,2.10
2017-12-13T22:13:37.411Z,2.00
2017-12-13T22:16:04.908Z,1.90
2017-12-13T22:18:32.415Z,1.90
2017-12-13T22:20:59.927Z,1.90
2017-12-13T22:23:27.427Z,1.90
2017-12-13T22:25:54.930Z,1.90
2017-12-13T22:28:23.208Z,2.00
2017-12-13T22:30:51.475Z,1.90
2017-12-13T22:33:19.739Z,1.80
2017-12-13T22:35:47.424Z,1.80
2017-12-13T22:38:15.688Z,1.70
2017-12-13T22:40:43.375Z,1.70
2017-12-13T22:43:10.900Z,1.80
2017-12-13T22:45:39.160Z,1.90
2017-12-13T22:48:06.668Z,1.90
2017-12-13T22:50:34.168Z,2.00
2017-12-13T22:53:01.679Z,2.00
2017-12-13T22:55:29.936Z,1.90
2017-12-13T22:57:57.428Z,1.90
2017-12-13T23:00:40.796Z,1.90
2017-12-13T23:03:08.301Z,2.00
2017-12-13T23:05:36.775Z,2.10
2017-12-13T23:08:05.054Z,2.10
2017-12-13T23:10:33.321Z,2.00
2017-12-13T23:13:01.712Z,2.00
2017-12-13T23:15:30.187Z,2.00
2017-12-13T23:17:58.459Z,2.00
2017-12-13T23:20:26.718Z,1.90
2017-12-13T23:22:54.237Z,1.90
2017-12-13T23:25:21.727Z,2.00
2017-12-13T23:27:49.224Z,1.90
2017-12-13T23:30:16.730Z,1.80
2017-12-13T23:32:44.231Z,1.80
2017-12-13T23:35:12.503Z,1.90
2017-12-13T23:37:40.760Z,2.00
2017-12-13T23:40:08.276Z,2.00
2017-12-13T23:42:35.779Z,2.00
2017-12-13T23:45:03.285Z,1.90
2017-12-13T23:47:30.787Z,1.90
2017-12-13T23:49:58.287Z,1.90
2017-12-13T23:52:25.791Z,2.00
2017-12-13T23:54:53.295Z,2.00
2017-12-13T23:57:21.587Z,2.00
2017-12-13T23:59:49.090Z,2.00
